Flight Track Log - Related Links

Times and Time Zones

All times are in EDT time to prevent confusion due to time zone crossing. See the EGF4174 flight status page for this flight to view local times or setup timezone preferences in your user account.

Time Position Orientation Groundspeed Altitude Reporting Facility
EDT Latitude Longitude Course Direction KTS MPH feet Rate Location/Type
Fri 07:27:07 PM 43.1089 -76.0922 286° West 154 177 1,100  Level Boston Center
Fri 07:28:08 PM 43.1372 -76.0539 45° Northeast 201 231 2,700 1,623 Climbing Boston Center
Fri 07:29:00 PM 43.1990 -76.4490 324° Northwest  Level FlightAware Approximate
Fri 07:29:09 PM 43.1850 -76.1194 315° West 270 311 4,400  Level Boston Center
Fri 07:30:00 PM 43.2109 -76.5765 281° West  Level FlightAware Approximate
Fri 07:31:00 PM 43.2350 -76.7018 286° West  Level FlightAware Approximate
Fri 07:31:36 PM 43.1881 -76.3742 271° West 275 316 9,700  Level Cleveland Center
Fri 07:32:00 PM 43.2616 -76.8263 286° West  Level FlightAware Approximate
Fri 07:32:36 PM 43.2067 -76.4842 283° West 281 323 11,300  Level Cleveland Center
Fri 07:33:36 PM 43.2275 -76.6025 284° West 301 346 12,600 1,400 Climbing Cleveland Center
Fri 07:34:36 PM 43.2486 -76.7294 283° West 329 379 14,100 1,450 Climbing Cleveland Center
Fri 07:35:36 PM 43.2714 -76.8564 284° West 341 392 15,500 1,300 Climbing Cleveland Center
Fri 07:36:36 PM 43.2872 -76.9611 282° West 347 399 16,700 1,300 Climbing Cleveland Center
Fri 07:37:36 PM 43.3108 -77.1167 282° West 353 406 18,100 1,600 Climbing Cleveland Center
Fri 07:38:36 PM 43.3106 -77.2508 270° West 353 406 19,900 1,650 Climbing Cleveland Center
Fri 07:39:36 PM 43.3061 -77.3850 267° West 348 400 21,400 1,450 Climbing Cleveland Center
Fri 07:40:36 PM 43.3014 -77.5194 267° West 354 407 22,800 1,450 Climbing Cleveland Center
Fri 07:41:36 PM 43.2986 -77.6536 268° West 354 407 24,300 1,450 Climbing Cleveland Center
Fri 07:42:36 PM 43.2956 -77.7850 268° West 354 407 25,700 1,400 Climbing Cleveland Center
Fri 07:43:36 PM 43.2903 -77.9222 267° West 354 407 27,100 1,400 Climbing Cleveland Center
Fri 07:44:36 PM 43.2869 -78.0508 268° West 349 402 28,500 1,200 Climbing Cleveland Center
Fri 07:45:36 PM 43.2814 -78.1792 267° West 349 402 29,500 1,000 Climbing Cleveland Center
Fri 07:46:36 PM 43.2778 -78.3133 268° West 349 402 30,500 950 Climbing Cleveland Center
Fri 07:47:36 PM 43.2742 -78.4503 268° West 349 402 31,400 950 Climbing Cleveland Center
Fri 07:48:36 PM 43.2706 -78.5903 268° West 354 407 32,400 950 Climbing Cleveland Center
Fri 07:49:36 PM 43.2644 -78.7331 267° West 370 426 33,300 900 Climbing Cleveland Center
Fri 07:50:36 PM 43.2603 -78.8700 268° West 370 426 34,200 908 Climbing Cleveland Center
Fri 07:51:35 PM 43.2539 -79.0128 267° West 370 426 35,100 706 Climbing Cleveland Center
Fri 07:52:35 PM 43.2333 -79.1333 257° West 370 426 35,600 450 Climbing Toronto Center
Fri 07:53:35 PM 43.2333 -79.2833 270° West 380 437 36,000 200 Climbing Toronto Center
Fri 07:54:35 PM 43.2167 -79.4333 261° West 390 449 36,000  Level Toronto Center
Fri 07:55:35 PM 43.2167 -79.5833 270° West 410 472 36,000  Level Toronto Center
Fri 07:56:35 PM 43.2167 -79.7500 270° West 420 483 36,000  Level Toronto Center
Fri 07:57:35 PM 43.2000 -79.9000 261° West 420 483 36,000  Level Toronto Center
Fri 07:58:35 PM 43.2000 -80.0667 270° West 410 472 36,000  Level Toronto Center
Fri 07:59:35 PM 43.1833 -80.2333 262° West 410 472 36,000  Level Toronto Center
Fri 08:00:35 PM 43.1833 -80.3667 270° West 410 472 36,000  Level Toronto Center
Fri 08:01:35 PM 43.1833 -80.5500 270° West 420 483 36,000  Level Toronto Center
Fri 08:02:35 PM 43.1667 -80.6833 260° West 430 495 36,000  Level Toronto Center
Fri 08:03:35 PM 43.1500 -80.8667 263° West 420 483 36,000  Level Toronto Center
Fri 08:04:35 PM 43.1333 -81.0000 260° West 420 483 36,000  Level Toronto Center
Fri 08:05:35 PM 43.1333 -81.1667 270° West 420 483 36,000  Level Toronto Center
Fri 08:06:35 PM 43.1167 -81.3167 261° West 420 483 36,000  Level Toronto Center
Fri 08:07:35 PM 43.1167 -81.4833 270° West 420 483 36,000  Level Toronto Center
Fri 08:08:35 PM 43.1000 -81.6500 262° West 420 483 36,000  Level Toronto Center
Fri 08:09:35 PM 43.1000 -81.8000 270° West 420 483 36,000  Level Toronto Center
Fri 08:10:35 PM 43.0833 -81.9667 262° West 420 483 36,000  Level Toronto Center
Fri 08:11:35 PM 43.0667 -82.1167 261° West 420 483 36,000  Level Toronto Center
Fri 08:12:35 PM 43.0667 -82.2833 270° West 420 483 36,000  Level Toronto Center
Fri 08:13:35 PM 43.0500 -82.4333 261° West 420 483 36,000  Level Toronto Center
Fri 08:14:35 PM 43.0500 -82.6000 270° West 420 483 36,000  Level Toronto Center
Fri 08:15:36 PM 43.0417 -82.7733 266° West 424 488 36,000  Level Cleveland Center
Fri 08:16:36 PM 43.0281 -82.9319 263° West 424 488 36,000  Level Cleveland Center
Fri 08:17:36 PM 43.0167 -83.0847 264° West 424 488 36,000  Level Cleveland Center
Fri 08:18:36 PM 43.0067 -83.2464 265° West 429 494 36,000 -500 Level Cleveland Center
Fri 08:19:36 PM 42.9925 -83.4075 263° West 429 494 35,000 -1,500 Descending Cleveland Center
Fri 08:20:36 PM 42.9800 -83.5686 264° West 424 488 33,000 -1,500 Descending Cleveland Center
Fri 08:21:36 PM 42.9653 -83.7325 263° West 429 494 32,000 -500 Descending Cleveland Center
Fri 08:22:36 PM 42.9503 -83.8992 263° West 436 502 32,000  Level Cleveland Center
Fri 08:23:36 PM 42.9350 -84.0658 263° West 441 507 32,000  Level Cleveland Center
Fri 08:25:19 PM 42.9089 -84.3417 263° West 453 521 32,000  Level Chicago Center
Fri 08:26:21 PM 42.8911 -84.5111 262° West 451 519 32,000  Level Chicago Center
Fri 08:27:23 PM 42.8739 -84.6825 262° West 456 525 32,000  Level Chicago Center
Fri 08:28:25 PM 42.8569 -84.8517 262° West 454 522 32,000  Level Chicago Center
Fri 08:29:27 PM 42.8350 -85.0528 262° West 450 518 32,000  Level Chicago Center
Fri 08:30:29 PM 42.8175 -85.2200 262° West 446 513 32,000  Level Chicago Center
Fri 08:31:31 PM 42.7986 -85.3883 261° West 448 516 32,000 -97 Level Chicago Center
Fri 08:32:33 PM 42.7772 -85.5567 260° West 451 519 31,800 -1,500 Descending Chicago Center
Fri 08:33:35 PM 42.7453 -85.7228 255° West 451 519 28,900 -2,952 Descending Chicago Center
Fri 08:34:37 PM 42.7156 -85.8931 257° West 456 525 25,700 -3,048 Descending Chicago Center
Fri 08:35:39 PM 42.6839 -86.0639 256° West 462 532 22,600 -2,710 Descending Chicago Center
Fri 08:36:41 PM 42.6494 -86.2539 256° West 437 503 20,100 -2,177 Descending Chicago Center
Fri 08:37:43 PM 42.6194 -86.4053 255° West 417 480 18,100 -1,839 Descending Chicago Center
Fri 08:38:45 PM 42.5911 -86.5589 256° West 420 483 16,300 -1,597 Descending Chicago Center
Fri 08:39:47 PM 42.5644 -86.7019 256° West 398 458 14,800 -1,452 Descending Chicago Center
Fri 08:40:49 PM 42.5303 -86.8450 252° West 399 459 13,300 -1,463 Descending Chicago Center
Fri 08:41:50 PM 42.4914 -86.9750 248° West 379 436 11,800 -1,415 Descending Chicago Center
Fri 08:42:52 PM 42.4569 -87.1011 250° West 362 417 10,400 -919 Descending Chicago Center
Fri 08:43:54 PM 42.4169 -87.2456 249° West 345 397 9,900 -242 Descending Chicago Center
Fri 08:44:56 PM 42.3842 -87.3650 250° West 340 391 9,900 -48 Level Chicago Center
Fri 08:45:58 PM 42.3547 -87.4758 250° West 322 371 9,800 -532 Descending Chicago Center
Fri 08:47:00 PM 42.3111 -87.5636 236° Southwest 299 344 8,800 -871 Descending Chicago Center
Fri 08:48:02 PM 42.2511 -87.6261 218° Southwest 277 319 8,000 -732 Descending Chicago Center
Fri 08:49:03 PM 42.1911 -87.6889 218° Southwest 275 316 7,300 -537 Descending Chicago Center
Fri 08:50:05 PM 42.1283 -87.7550 218° Southwest 245 282 6,900 -101 Descending Chicago Center
Fri 08:51:02 PM 42.0833 -87.8167 225° Southwest 246 283 7,100 103 Climbing Chicago TRACON
Fri 08:52:02 PM 42.0833 -87.9000 270° West 224 258 7,100  Level Chicago TRACON
Fri 08:53:02 PM 42.0833 -87.9833 270° West 223 257 7,100  Level Chicago TRACON
Fri 08:54:02 PM 42.0833 -88.0667 270° West 216 249 7,100 -300 Level Chicago TRACON
Fri 08:55:02 PM 42.0833 -88.1500 270° West 212 244 6,500 -700 Descending Chicago TRACON
Fri 08:56:02 PM 42.0833 -88.2333 270° West 213 245 5,700 -880 Descending Chicago TRACON
Fri 08:56:17 PM 42.0897 -88.2433 311° West 213 245 5,400 -935 Descending Chicago Center
Fri 08:57:19 PM 42.0892 -88.3203 269° West 209 241 4,500 -732 Descending Chicago Center
Fri 08:58:20 PM 42.0800 -88.3978 261° West 210 242 3,900 -293 Descending Chicago Center
Fri 08:59:22 PM 42.0403 -88.4242 206° Southwest 189 217 3,900 48 Level Chicago Center
Fri 09:00:24 PM 41.9967 -88.4231 179° South 170 196 4,000 48 Climbing Chicago Center
Fri 09:01:26 PM 41.9808 -88.3569 108° East 161 185 4,000 48 Level Chicago Center
Fri 09:02:28 PM 41.9828 -88.2958 88° East 162 186 4,100 48 Climbing Chicago Center
Fri 09:03:30 PM 41.9833 -88.2394 89° East 158 182 4,100  Level Chicago Center
Fri 09:04:32 PM 41.9828 -88.1778 91° East 160 184 4,100  Level Chicago Center

Login

Don't have an account? Register now (free) for customized features, flight alerts, and more!